CMA CGM Maupassant — 2DSD6 — position and weather

sailwx.info

Track history (hours):
 
Tides and Currents Weather Stations Pressure Air Temp Water Temp Dewpoint Dewpoint Depression Visibility Wind Speed Wind Dir Waves Ship Positions

CMA CGM Maupassant

Last reported at 2018-Jun-17 18:59 UTC. Time now 2018-Jun-22 05:41 UTC.
Position N 35°02' E 129°24'.

Length 299 m; draft 11.4 m.

Type: Ship (hazmat cat A). MMSI: 235081604.

Date/timePositionNaut miles runAvg speedWind from/ knotsBaromVisibWave heightAir tempDewpointWater temp
2018-Jun-17 18:59N 35°02' E 129°24'  
2018-Jun-14 13:11N 30°30' E 122°38'0 1.3
2018-Jun-14 13:00N 30°30' E 122°39'28 8.3
2018-Jun-14 09:41N 30°35' E 122°07'412.6
2018-Jun-14 09:20N 30°37' E 122°03'2 7.5
2018-Jun-14 09:00N 30°39' E 122°01'0 0.1
2018-Jun-14 08:08N 30°39' E 122°01'0 0.0
2018-Jun-14 07:56N 30°39' E 122°01'0 0.0
2018-Jun-14 07:20N 30°39' E 122°01'0 0.0
2018-Jun-14 06:56N 30°39' E 122°01'0 0.0
2018-Jun-14 06:26N 30°39' E 122°01'0 0.0
2018-Jun-14 05:56N 30°39' E 122°01'0 0.0
2018-Jun-14 05:14N 30°39' E 122°01'0 0.0
2018-Jun-14 04:56N 30°39' E 122°01'0 0.0
2018-Jun-14 04:29N 30°39' E 122°01'0 0.0
2018-Jun-14 03:56N 30°39' E 122°01'0 0.0
2018-Jun-14 03:26N 30°39' E 122°01'0 0.0
2018-Jun-14 02:56N 30°39' E 122°01'0 0.0
2018-Jun-14 01:17N 30°39' E 122°01'0 0.0
2018-Jun-14 00:50N 30°39' E 122°01'0 0.0
2018-Jun-13 22:25N 30°39' E 122°01'0 0.0
2018-Jun-13 21:58N 30°39' E 122°01'0 0.0
2018-Jun-13 21:19N 30°39' E 122°01'0 0.0
2018-Jun-13 20:58N 30°39' E 122°01'0 0.0
2018-Jun-13 19:58N 30°39' E 122°01'0 0.0
2018-Jun-13 16:55N 30°39' E 122°01'0 0.0
2018-Jun-13 16:25N 30°39' E 122°01'0 0.9
2018-Jun-13 16:00N 30°39' E 122°01'5 8.8
2018-Jun-13 15:28N 30°36' E 122°05'4611.4
2018-Jun-13 11:25N 30°21' E 122°56'31816.7
2018-Jun-12 16:18N 25°30' E 120°30'1616.9
2018-Jun-12 15:22N 25°17' E 120°21'2216.0
2018-Jun-12 14:01N 25°01' E 120°05'315.7
2018-Jun-12 13:49N 24°59' E 120°02'616.0
2018-Jun-12 13:27N 24°55' E 119°57'716.1
2018-Jun-12 13:00N 24°51' E 119°51'816.6
2018-Jun-12 12:30N 24°45' E 119°44'916.9
2018-Jun-12 12:00N 24°40' E 119°37'1017.6
2018-Jun-12 11:27N 24°34' E 119°29'817.3
2018-Jun-12 10:59N 24°28' E 119°22'816.9
2018-Jun-12 10:29N 24°23' E 119°15'816.7
2018-Jun-12 09:59N 24°18' E 119°08'817.4
2018-Jun-12 09:30N 24°12' E 119°01'917.4
2018-Jun-12 09:00N 24°07' E 118°54'917.2
2018-Jun-12 08:30N 24°01' E 118°46'816.8
2018-Jun-12 08:00N 23°56' E 118°39'816.3
2018-Jun-12 07:30N 23°51' E 118°32'816.5
2018-Jun-12 07:00N 23°45' E 118°26'918.8
2018-Jun-12 06:30N 23°39' E 118°18'816.2
2018-Jun-12 06:00N 23°34' E 118°11'815.3
2018-Jun-12 05:30N 23°29' E 118°05'714.9
2018-Jun-12 05:01N 23°24' E 117°59'714.6
2018-Jun-12 04:30N 23°19' E 117°53'815.0
2018-Jun-12 04:00N 23°16' E 117°45'815.4
2018-Jun-12 03:30N 23°12' E 117°38'816.1
2018-Jun-12 03:00N 23°09' E 117°30'816.6
2018-Jun-12 02:30N 23°04' E 117°23'816.8
2018-Jun-12 02:00N 22°59' E 117°15'816.8
2018-Jun-12 01:30N 22°55' E 117°08'916.9
2018-Jun-12 01:00N 22°50' E 117°00'162 4.7
2018-Jun-10 14:21N 22°20' E 114°08'0 0.1
2018-Jun-10 13:20N 22°20' E 114°08'0 0.0
2018-Jun-10 12:53N 22°20' E 114°08'0 0.0
2018-Jun-10 12:25N 22°20' E 114°08'0 0.0
2018-Jun-10 11:58N 22°20' E 114°08'0 0.0
2018-Jun-10 07:52N 22°20' E 114°08'0 0.0
2018-Jun-10 07:01N 22°20' E 114°08'0 0.0
2018-Jun-10 06:46N 22°20' E 114°08'0 0.0
2018-Jun-10 06:29N 22°20' E 114°08'0 0.0
2018-Jun-10 05:59N 22°20' E 114°08'0 0.2
2018-Jun-10 05:30N 22°20' E 114°08'0 0.0
2018-Jun-10 01:09N 22°20' E 114°08'0 0.0
2018-Jun-10 00:45N 22°20' E 114°08'  
Track history (hours):
 
Tides and Currents Weather Stations Pressure Air Temp Water Temp Dewpoint Dewpoint Depression Visibility Wind Speed Wind Dir Waves Ship Positions

CMA CGM Maupassant

Last reported at 2018-Jun-17 18:59 UTC. Time now 2018-Jun-22 05:41 UTC.
Position N 35°02' E 129°24'.

Length 299 m; draft 11.4 m.

Type: Ship (hazmat cat A). MMSI: 235081604.

Date/timePositionNaut miles runAvg speedWind from/ knotsBaromVisibWave heightAir tempDewpointWater temp
2018-Jun-17 18:59N 35°02' E 129°24'  
2018-Jun-14 13:11N 30°30' E 122°38'0 1.3
2018-Jun-14 13:00N 30°30' E 122°39'28 8.3
2018-Jun-14 09:41N 30°35' E 122°07'412.6
2018-Jun-14 09:20N 30°37' E 122°03'2 7.5
2018-Jun-14 09:00N 30°39' E 122°01'0 0.1
2018-Jun-14 08:08N 30°39' E 122°01'0 0.0
2018-Jun-14 07:56N 30°39' E 122°01'0 0.0
2018-Jun-14 07:20N 30°39' E 122°01'0 0.0
2018-Jun-14 06:56N 30°39' E 122°01'0 0.0
2018-Jun-14 06:26N 30°39' E 122°01'0 0.0
2018-Jun-14 05:56N 30°39' E 122°01'0 0.0
2018-Jun-14 05:14N 30°39' E 122°01'0 0.0
2018-Jun-14 04:56N 30°39' E 122°01'0 0.0
2018-Jun-14 04:29N 30°39' E 122°01'0 0.0
2018-Jun-14 03:56N 30°39' E 122°01'0 0.0
2018-Jun-14 03:26N 30°39' E 122°01'0 0.0
2018-Jun-14 02:56N 30°39' E 122°01'0 0.0
2018-Jun-14 01:17N 30°39' E 122°01'0 0.0
2018-Jun-14 00:50N 30°39' E 122°01'0 0.0
2018-Jun-13 22:25N 30°39' E 122°01'0 0.0
2018-Jun-13 21:58N 30°39' E 122°01'0 0.0
2018-Jun-13 21:19N 30°39' E 122°01'0 0.0
2018-Jun-13 20:58N 30°39' E 122°01'0 0.0
2018-Jun-13 19:58N 30°39' E 122°01'0 0.0
2018-Jun-13 16:55N 30°39' E 122°01'0 0.0
2018-Jun-13 16:25N 30°39' E 122°01'0 0.9
2018-Jun-13 16:00N 30°39' E 122°01'5 8.8
2018-Jun-13 15:28N 30°36' E 122°05'4611.4
2018-Jun-13 11:25N 30°21' E 122°56'31816.7
2018-Jun-12 16:18N 25°30' E 120°30'1616.9
2018-Jun-12 15:22N 25°17' E 120°21'2216.0
2018-Jun-12 14:01N 25°01' E 120°05'315.7
2018-Jun-12 13:49N 24°59' E 120°02'616.0
2018-Jun-12 13:27N 24°55' E 119°57'716.1
2018-Jun-12 13:00N 24°51' E 119°51'816.6
2018-Jun-12 12:30N 24°45' E 119°44'916.9
2018-Jun-12 12:00N 24°40' E 119°37'1017.6
2018-Jun-12 11:27N 24°34' E 119°29'817.3
2018-Jun-12 10:59N 24°28' E 119°22'816.9
2018-Jun-12 10:29N 24°23' E 119°15'816.7
2018-Jun-12 09:59N 24°18' E 119°08'817.4
2018-Jun-12 09:30N 24°12' E 119°01'917.4
2018-Jun-12 09:00N 24°07' E 118°54'917.2
2018-Jun-12 08:30N 24°01' E 118°46'816.8
2018-Jun-12 08:00N 23°56' E 118°39'816.3
2018-Jun-12 07:30N 23°51' E 118°32'816.5
2018-Jun-12 07:00N 23°45' E 118°26'918.8
2018-Jun-12 06:30N 23°39' E 118°18'816.2
2018-Jun-12 06:00N 23°34' E 118°11'815.3
2018-Jun-12 05:30N 23°29' E 118°05'714.9
2018-Jun-12 05:01N 23°24' E 117°59'714.6
2018-Jun-12 04:30N 23°19' E 117°53'815.0
2018-Jun-12 04:00N 23°16' E 117°45'815.4
2018-Jun-12 03:30N 23°12' E 117°38'816.1
2018-Jun-12 03:00N 23°09' E 117°30'816.6
2018-Jun-12 02:30N 23°04' E 117°23'816.8
2018-Jun-12 02:00N 22°59' E 117°15'816.8
2018-Jun-12 01:30N 22°55' E 117°08'916.9
2018-Jun-12 01:00N 22°50' E 117°00'162 4.7
2018-Jun-10 14:21N 22°20' E 114°08'0 0.1
2018-Jun-10 13:20N 22°20' E 114°08'0 0.0
2018-Jun-10 12:53N 22°20' E 114°08'0 0.0
2018-Jun-10 12:25N 22°20' E 114°08'0 0.0
2018-Jun-10 11:58N 22°20' E 114°08'0 0.0
2018-Jun-10 07:52N 22°20' E 114°08'0 0.0
2018-Jun-10 07:01N 22°20' E 114°08'0 0.0
2018-Jun-10 06:46N 22°20' E 114°08'0 0.0
2018-Jun-10 06:29N 22°20' E 114°08'0 0.0
2018-Jun-10 05:59N 22°20' E 114°08'0 0.2
2018-Jun-10 05:30N 22°20' E 114°08'0 0.0
2018-Jun-10 01:09N 22°20' E 114°08'0 0.0
2018-Jun-10 00:45N 22°20' E 114°08'  

Dump ship's entire track history